createdAt,value
2022-11-23T03:59:41.612Z,991.99
2022-11-23T04:00:41.575Z,991.96
2022-11-23T04:01:41.569Z,991.94
2022-11-23T04:02:41.550Z,991.97
2022-11-23T04:03:41.541Z,992.00
2022-11-23T04:04:41.544Z,991.95
2022-11-23T04:05:41.518Z,991.98
2022-11-23T04:06:41.521Z,991.97
2022-11-23T04:07:41.599Z,991.97
2022-11-23T04:08:41.525Z,991.98
2022-11-23T04:09:41.507Z,991.98
2022-11-23T04:10:41.505Z,991.97
2022-11-23T04:11:41.492Z,992.01
2022-11-23T04:12:41.484Z,992.00
2022-11-23T04:13:41.469Z,992.03
2022-11-23T04:14:41.476Z,991.98
2022-11-23T04:15:41.482Z,991.97
2022-11-23T04:16:41.468Z,991.96
2022-11-23T04:17:41.449Z,992.01
2022-11-23T04:18:41.453Z,991.98
2022-11-23T04:19:41.490Z,991.99
2022-11-23T04:20:41.441Z,991.96
2022-11-23T04:21:41.437Z,992.00
2022-11-23T04:22:41.459Z,991.99
2022-11-23T04:23:41.423Z,991.99
2022-11-23T04:24:41.431Z,991.99
2022-11-23T04:25:41.419Z,992.01
2022-11-23T04:26:41.457Z,991.99
2022-11-23T04:27:41.419Z,992.04
2022-11-23T04:28:41.403Z,991.98
2022-11-23T04:29:41.420Z,991.94
2022-11-23T04:30:41.395Z,991.98
2022-11-23T04:31:41.417Z,991.97
2022-11-23T04:32:41.399Z,991.99
2022-11-23T04:33:41.387Z,991.94
2022-11-23T04:34:41.393Z,991.97
2022-11-23T04:35:41.378Z,991.96
2022-11-23T04:36:41.379Z,991.90
2022-11-23T04:37:41.364Z,991.93
2022-11-23T04:38:41.361Z,991.92
2022-11-23T04:39:41.402Z,991.94
2022-11-23T04:40:41.350Z,991.92
2022-11-23T04:41:41.353Z,991.95
2022-11-23T04:42:41.349Z,991.92
2022-11-23T04:43:41.344Z,991.93
2022-11-23T04:44:41.371Z,991.98
2022-11-23T04:45:41.351Z,991.96
2022-11-23T04:46:41.322Z,991.93
2022-11-23T04:47:41.333Z,991.99
2022-11-23T04:48:41.312Z,991.99
2022-11-23T04:49:41.329Z,991.99
2022-11-23T04:50:41.332Z,991.99
2022-11-23T04:51:41.316Z,992.03
2022-11-23T04:52:41.303Z,992.06
2022-11-23T04:53:41.298Z,992.04
2022-11-23T04:54:41.297Z,992.03
2022-11-23T04:55:41.294Z,992.05
2022-11-23T04:56:41.299Z,992.05
2022-11-23T04:57:41.274Z,992.07
2022-11-23T04:58:41.273Z,992.09
2022-11-23T04:59:41.279Z,992.05
2022-11-23T05:00:41.809Z,992.09
2022-11-23T05:01:41.344Z,992.11
2022-11-23T05:02:41.280Z,992.10
2022-11-23T05:03:41.276Z,992.12
2022-11-23T05:04:41.270Z,992.12
2022-11-23T05:05:41.251Z,992.08
2022-11-23T05:06:41.246Z,992.11
2022-11-23T05:07:41.272Z,992.12
2022-11-23T05:08:41.249Z,992.12
2022-11-23T05:09:41.244Z,992.15
2022-11-23T05:10:41.237Z,992.14
2022-11-23T05:11:41.221Z,992.10
2022-11-23T05:12:41.243Z,992.12
2022-11-23T05:13:41.222Z,992.17
2022-11-23T05:14:41.233Z,992.15
2022-11-23T05:15:41.210Z,992.10
2022-11-23T05:16:41.227Z,992.12
2022-11-23T05:17:41.191Z,992.12
2022-11-23T05:18:41.198Z,992.14
2022-11-23T05:19:41.251Z,992.15
2022-11-23T05:20:41.185Z,992.13
2022-11-23T05:21:41.209Z,992.12
2022-11-23T05:22:41.185Z,992.13
2022-11-23T05:23:41.167Z,992.15
2022-11-23T05:24:41.169Z,992.21
2022-11-23T05:25:41.170Z,992.15
2022-11-23T05:26:41.162Z,992.17
2022-11-23T05:27:41.157Z,992.20
2022-11-23T05:28:41.764Z,992.14
2022-11-23T05:29:41.137Z,992.16
2022-11-23T05:30:41.140Z,992.15
2022-11-23T05:31:41.145Z,992.19
2022-11-23T05:32:41.154Z,992.18
2022-11-23T05:33:41.128Z,992.17
2022-11-23T05:34:41.130Z,992.17
2022-11-23T05:35:41.151Z,992.15
2022-11-23T05:36:42.478Z,992.21
2022-11-23T05:37:41.128Z,992.22
2022-11-23T05:38:41.124Z,992.22
2022-11-23T05:39:41.109Z,992.22
2022-11-23T05:40:41.111Z,992.27
2022-11-23T05:41:41.102Z,992.29
2022-11-23T05:42:41.247Z,992.28
2022-11-23T05:43:41.083Z,992.28
2022-11-23T05:44:41.089Z,992.26
2022-11-23T05:45:41.153Z,992.29
2022-11-23T05:46:41.088Z,992.34
2022-11-23T05:47:41.063Z,992.31
2022-11-23T05:48:41.071Z,992.34
2022-11-23T05:49:41.062Z,992.32
2022-11-23T05:50:41.070Z,992.36
2022-11-23T05:51:41.093Z,992.37
2022-11-23T05:52:41.068Z,992.36
2022-11-23T05:53:41.045Z,992.35
2022-11-23T05:54:41.046Z,992.37
2022-11-23T05:55:41.050Z,992.35
2022-11-23T05:56:41.046Z,992.34
2022-11-23T05:57:41.036Z,992.37
2022-11-23T05:58:41.027Z,992.37
2022-11-23T05:59:41.019Z,992.38
2022-11-23T06:00:41.013Z,992.38
2022-11-23T06:01:41.013Z,992.37
2022-11-23T06:02:41.525Z,992.35
2022-11-23T06:03:41.068Z,992.38
2022-11-23T06:04:41.000Z,992.37
2022-11-23T06:05:40.993Z,992.35
2022-11-23T06:06:40.998Z,992.38
2022-11-23T06:07:41.107Z,992.42
2022-11-23T06:08:41.606Z,992.35
2022-11-23T06:09:40.992Z,992.36
2022-11-23T06:10:40.986Z,992.34
2022-11-23T06:11:40.973Z,992.36
2022-11-23T06:12:40.979Z,992.34
2022-11-23T06:13:40.973Z,992.34
2022-11-23T06:14:40.971Z,992.36
2022-11-23T06:15:40.962Z,992.41
2022-11-23T06:16:40.951Z,992.43
2022-11-23T06:17:40.972Z,992.39
2022-11-23T06:18:40.950Z,992.43
2022-11-23T06:19:40.982Z,992.47
2022-11-23T06:20:40.933Z,992.43
2022-11-23T06:21:42.325Z,992.44
2022-11-23T06:22:40.924Z,992.43
2022-11-23T06:23:41.328Z,992.45
2022-11-23T06:24:41.076Z,992.47
2022-11-23T06:25:40.917Z,992.45
2022-11-23T06:26:40.916Z,992.48
2022-11-23T06:27:40.923Z,992.46
2022-11-23T06:28:40.915Z,992.46
2022-11-23T06:29:40.912Z,992.46
2022-11-23T06:30:40.930Z,992.48
2022-11-23T06:31:40.897Z,992.52
2022-11-23T06:32:40.898Z,992.51
2022-11-23T06:33:40.889Z,992.51
2022-11-23T06:34:40.900Z,992.50
2022-11-23T06:35:40.874Z,992.54
2022-11-23T06:36:40.894Z,992.54
2022-11-23T06:37:40.888Z,992.53
2022-11-23T06:38:40.878Z,992.55
2022-11-23T06:39:40.883Z,992.60
2022-11-23T06:40:40.873Z,992.60
2022-11-23T06:41:40.853Z,992.65
2022-11-23T06:42:40.869Z,992.62
2022-11-23T06:43:40.893Z,992.60
2022-11-23T06:44:40.836Z,992.59
2022-11-23T06:45:40.835Z,992.63
2022-11-23T06:46:41.806Z,992.58
2022-11-23T06:47:40.884Z,992.59
2022-11-23T06:48:40.948Z,992.60
2022-11-23T06:49:41.150Z,992.62
2022-11-23T06:50:40.824Z,992.61
2022-11-23T06:51:41.805Z,992.60
2022-11-23T06:52:40.863Z,992.62
2022-11-23T06:53:40.806Z,992.64
2022-11-23T06:54:40.813Z,992.59
2022-11-23T06:55:41.890Z,992.63
2022-11-23T06:56:41.178Z,992.67
2022-11-23T06:57:40.813Z,992.66
2022-11-23T06:58:40.919Z,992.69
2022-11-23T06:59:44.669Z,992.70
2022-11-23T07:00:41.802Z,992.72
2022-11-23T07:01:41.230Z,992.67
2022-11-23T07:02:41.692Z,992.69
2022-11-23T07:03:41.003Z,992.72
2022-11-23T07:04:40.778Z,992.74
2022-11-23T07:05:40.767Z,992.75
2022-11-23T07:06:40.745Z,992.77
2022-11-23T07:07:40.822Z,992.75
2022-11-23T07:08:40.778Z,992.78
2022-11-23T07:09:40.746Z,992.77
2022-11-23T07:10:40.729Z,992.74
2022-11-23T07:11:40.747Z,992.77
2022-11-23T07:12:40.720Z,992.79
2022-11-23T07:13:40.741Z,992.77
2022-11-23T07:14:40.735Z,992.82
2022-11-23T07:15:40.718Z,992.81
2022-11-23T07:16:40.722Z,992.84
2022-11-23T07:17:40.720Z,992.87
2022-11-23T07:18:40.740Z,992.91
2022-11-23T07:19:40.692Z,992.89
2022-11-23T07:20:40.686Z,992.88
2022-11-23T07:21:40.693Z,992.91
2022-11-23T07:22:40.679Z,992.95
2022-11-23T07:23:40.718Z,992.92
2022-11-23T07:24:46.373Z,992.93
2022-11-23T07:25:40.671Z,992.92
2022-11-23T07:26:40.682Z,992.93
2022-11-23T07:27:40.683Z,992.90
2022-11-23T07:28:40.659Z,992.90
2022-11-23T07:29:40.653Z,992.94
2022-11-23T07:30:40.645Z,992.93
2022-11-23T07:31:40.656Z,992.92
2022-11-23T07:32:40.672Z,992.95
2022-11-23T07:33:40.680Z,992.97
2022-11-23T07:34:40.679Z,992.97
2022-11-23T07:35:40.697Z,992.99
2022-11-23T07:36:41.409Z,992.97
2022-11-23T07:37:40.629Z,993.01
2022-11-23T07:38:40.678Z,993.01
2022-11-23T07:39:57.853Z,993.05
2022-11-23T07:40:40.608Z,993.02
2022-11-23T07:41:40.629Z,993.05
2022-11-23T07:42:44.825Z,993.07
2022-11-23T07:43:40.750Z,993.08
2022-11-23T07:44:40.602Z,993.09
2022-11-23T07:45:40.593Z,993.09
2022-11-23T07:46:40.617Z,993.05
2022-11-23T07:47:41.411Z,993.10
2022-11-23T07:49:40.596Z,993.11
2022-11-23T07:50:40.564Z,993.06
2022-11-23T07:51:40.577Z,993.09
2022-11-23T07:52:40.571Z,993.09
2022-11-23T07:53:40.646Z,993.11
2022-11-23T07:55:40.557Z,993.12
2022-11-23T07:56:40.911Z,993.14
2022-11-23T07:57:40.569Z,993.16
2022-11-23T07:59:40.577Z,993.17
2022-11-23T08:01:40.699Z,993.16
2022-11-23T08:02:57.858Z,993.17
2022-11-23T08:03:40.602Z,993.18
2022-11-23T08:04:40.535Z,993.17
2022-11-23T08:05:40.521Z,993.19
2022-11-23T08:06:40.548Z,993.18
2022-11-23T08:07:40.608Z,993.21
2022-11-23T08:08:40.500Z,993.20
2022-11-23T08:10:46.127Z,993.23
2022-11-23T08:11:40.484Z,993.19
2022-11-23T08:12:40.490Z,993.20
2022-11-23T08:13:40.542Z,993.25
2022-11-23T08:14:40.488Z,993.21
2022-11-23T08:15:40.495Z,993.24
2022-11-23T08:16:40.474Z,993.28
2022-11-23T08:17:40.512Z,993.25
2022-11-23T08:18:40.465Z,993.22
2022-11-23T08:19:40.532Z,993.27
2022-11-23T08:20:40.455Z,993.27
2022-11-23T08:21:40.678Z,993.25
2022-11-23T08:22:40.467Z,993.24
2022-11-23T08:23:40.454Z,993.25
2022-11-23T08:24:40.577Z,993.25
2022-11-23T08:25:40.488Z,993.28
2022-11-23T08:26:40.442Z,993.30
2022-11-23T08:27:40.436Z,993.28
2022-11-23T08:28:40.478Z,993.27
2022-11-23T08:29:55.925Z,993.30
2022-11-23T08:30:40.606Z,993.29
2022-11-23T08:31:56.703Z,993.30
2022-11-23T08:32:40.777Z,993.36
2022-11-23T08:33:41.928Z,993.36
2022-11-23T08:34:44.631Z,993.35
2022-11-23T08:35:40.940Z,993.32
2022-11-23T08:36:42.012Z,993.33
2022-11-23T08:37:40.406Z,993.32
2022-11-23T08:38:41.951Z,993.33
2022-11-23T08:39:40.409Z,993.29
2022-11-23T08:40:40.689Z,993.33
2022-11-23T08:41:40.617Z,993.36
2022-11-23T08:42:40.471Z,993.34
2022-11-23T08:43:40.375Z,993.38
2022-11-23T08:44:40.421Z,993.39
2022-11-23T08:45:40.483Z,993.35
2022-11-23T08:46:41.448Z,993.39
2022-11-23T08:47:40.495Z,993.42
2022-11-23T08:48:40.354Z,993.45
2022-11-23T08:49:40.597Z,993.42
2022-11-23T08:50:40.416Z,993.39
2022-11-23T08:51:41.131Z,993.42
2022-11-23T08:52:40.468Z,993.43
2022-11-23T08:53:40.320Z,993.40
2022-11-23T08:55:40.512Z,993.42
2022-11-23T08:56:44.332Z,993.39
2022-11-23T08:57:41.512Z,993.38
2022-11-23T08:58:40.442Z,993.43
2022-11-23T08:59:40.304Z,993.45
2022-11-23T09:00:40.440Z,993.40
2022-11-23T09:01:40.509Z,993.42
2022-11-23T09:02:40.371Z,993.42
2022-11-23T09:03:40.312Z,993.40
2022-11-23T09:04:40.344Z,993.47
2022-11-23T09:05:40.913Z,993.41
2022-11-23T09:06:40.284Z,993.44
2022-11-23T09:07:40.369Z,993.46
2022-11-23T09:08:40.299Z,993.43
2022-11-23T09:09:40.334Z,993.48
2022-11-23T09:10:40.272Z,993.46
2022-11-23T09:11:40.274Z,993.45
2022-11-23T09:12:40.303Z,993.42
2022-11-23T09:13:40.255Z,993.44
2022-11-23T09:14:40.236Z,993.44
2022-11-23T09:15:40.243Z,993.45
2022-11-23T09:16:40.246Z,993.40
2022-11-23T09:17:40.239Z,993.42
2022-11-23T09:18:40.222Z,993.43
2022-11-23T09:19:41.983Z,993.40
2022-11-23T09:20:40.331Z,993.42
2022-11-23T09:21:44.030Z,993.46
2022-11-23T09:22:40.226Z,993.45
2022-11-23T09:23:40.249Z,993.43
2022-11-23T09:24:40.297Z,993.45
2022-11-23T09:25:40.222Z,993.42
2022-11-23T09:26:40.232Z,993.44
2022-11-23T09:27:40.251Z,993.44
2022-11-23T09:28:44.473Z,993.47
2022-11-23T09:29:40.203Z,993.47
2022-11-23T09:30:40.266Z,993.46
2022-11-23T09:31:40.186Z,993.49
2022-11-23T09:32:40.260Z,993.49
2022-11-23T09:33:40.174Z,993.48
2022-11-23T09:34:40.180Z,993.52
2022-11-23T09:35:43.817Z,993.51
2022-11-23T09:36:40.165Z,993.45
2022-11-23T09:37:40.168Z,993.51
2022-11-23T09:38:57.295Z,993.46
2022-11-23T09:39:40.160Z,993.50
2022-11-23T09:40:40.166Z,993.53
2022-11-23T09:41:40.218Z,993.51
2022-11-23T09:42:44.904Z,993.56
2022-11-23T09:43:40.159Z,993.52
2022-11-23T09:44:40.336Z,993.55
2022-11-23T09:45:40.209Z,993.53
2022-11-23T09:46:40.152Z,993.63
2022-11-23T09:47:40.158Z,993.59
2022-11-23T09:48:41.311Z,993.63
2022-11-23T09:49:40.152Z,993.67
2022-11-23T09:50:40.173Z,993.61
2022-11-23T09:51:40.137Z,993.63
2022-11-23T09:52:40.159Z,993.61
2022-11-23T09:53:40.132Z,993.60
2022-11-23T09:54:40.141Z,993.59
2022-11-23T09:55:40.112Z,993.60
2022-11-23T09:56:40.137Z,993.65
2022-11-23T09:57:40.143Z,993.65
2022-11-23T09:58:40.106Z,993.57
2022-11-23T09:59:40.103Z,993.62
2022-11-23T10:00:40.122Z,993.64
2022-11-23T10:01:40.130Z,993.62
2022-11-23T10:02:40.149Z,993.60
2022-11-23T10:13:49.405Z,993.59
2022-11-23T10:14:49.369Z,993.58
2022-11-23T10:15:50.199Z,993.55
2022-11-23T10:16:49.388Z,993.56
2022-11-23T10:17:49.359Z,993.60
2022-11-23T10:18:49.373Z,993.57
2022-11-23T10:19:49.418Z,993.53
2022-11-23T10:20:49.626Z,993.51
2022-11-23T10:21:49.340Z,993.54
2022-11-23T10:22:49.335Z,993.52
2022-11-23T10:23:49.327Z,993.50
2022-11-23T10:24:49.579Z,993.50
2022-11-23T10:25:49.562Z,993.55
2022-11-23T10:26:49.856Z,993.52
2022-11-23T10:27:49.434Z,993.52
2022-11-23T10:28:52.509Z,993.48
2022-11-23T10:29:49.455Z,993.49
2022-11-23T10:30:49.524Z,993.48
2022-11-23T10:31:52.739Z,993.46
2022-11-23T10:32:49.352Z,993.45
2022-11-23T10:33:49.326Z,993.44
2022-11-23T10:34:56.249Z,993.45
2022-11-23T10:35:49.399Z,993.45
2022-11-23T10:36:49.478Z,993.48
2022-11-23T10:37:53.287Z,993.41
2022-11-23T10:38:49.284Z,993.45
2022-11-23T10:39:49.405Z,993.45
2022-11-23T10:40:49.367Z,993.47
2022-11-23T10:41:49.273Z,993.52
2022-11-23T10:42:49.362Z,993.46
2022-11-23T10:43:49.333Z,993.47
2022-11-23T10:44:49.282Z,993.47
2022-11-23T10:45:59.630Z,993.42
2022-11-23T10:46:49.419Z,993.44
2022-11-23T10:47:56.368Z,993.45
2022-11-23T10:48:49.365Z,993.42
2022-11-23T10:49:49.826Z,993.44
2022-11-23T10:50:49.410Z,993.45
2022-11-23T10:51:55.995Z,993.42
2022-11-23T10:52:49.290Z,993.45
2022-11-23T10:53:49.384Z,993.37
2022-11-23T10:54:49.281Z,993.37
2022-11-23T10:55:49.275Z,993.34
2022-11-23T10:56:49.863Z,993.34
2022-11-23T10:57:49.256Z,993.34
2022-11-23T10:58:49.256Z,993.31
2022-11-23T10:59:49.316Z,993.31
2022-11-23T11:00:49.295Z,993.27
2022-11-23T11:01:49.341Z,993.28
2022-11-23T11:02:49.236Z,993.29
2022-11-23T11:03:55.930Z,993.32
2022-11-23T11:04:52.184Z,993.30
2022-11-23T11:06:49.405Z,993.29
2022-11-23T11:07:49.362Z,993.31
2022-11-23T11:08:49.228Z,993.24
2022-11-23T11:09:49.233Z,993.23
2022-11-23T11:10:50.053Z,993.20
2022-11-23T11:11:49.223Z,993.22
2022-11-23T11:12:49.216Z,993.21
2022-11-23T11:13:49.215Z,993.21
2022-11-23T11:14:49.550Z,993.19
2022-11-23T11:15:49.214Z,993.18
2022-11-23T11:16:49.214Z,993.16
2022-11-23T11:17:49.259Z,993.18
2022-11-23T11:18:49.247Z,993.15
2022-11-23T11:19:49.493Z,993.16
2022-11-23T11:20:49.219Z,993.15
2022-11-23T11:21:49.215Z,993.19
2022-11-23T11:22:49.221Z,993.18
2022-11-23T11:23:49.213Z,993.17
2022-11-23T11:24:49.270Z,993.16
2022-11-23T11:25:49.321Z,993.13
2022-11-23T11:26:49.214Z,993.17
2022-11-23T11:27:49.930Z,993.20
2022-11-23T11:28:49.197Z,993.21
2022-11-23T11:30:49.223Z,993.18
2022-11-23T11:31:49.216Z,993.14
2022-11-23T11:32:49.215Z,993.12
2022-11-23T11:33:49.586Z,993.09
2022-11-23T11:34:49.245Z,993.13
2022-11-23T11:35:49.220Z,993.10
2022-11-23T11:36:49.186Z,993.11
2022-11-23T11:37:49.192Z,993.08
2022-11-23T11:39:14.938Z,993.08
2022-11-23T11:39:49.195Z,993.07
2022-11-23T11:40:49.200Z,993.11
2022-11-23T11:41:49.834Z,993.06
2022-11-23T11:42:49.237Z,993.05
2022-11-23T11:43:49.183Z,993.05
2022-11-23T11:44:49.198Z,993.06
2022-11-23T11:46:13.633Z,993.08
2022-11-23T11:46:49.205Z,993.08
2022-11-23T11:47:49.260Z,993.07
2022-11-23T11:48:49.196Z,993.07
2022-11-23T11:49:49.207Z,993.04
2022-11-23T11:50:49.181Z,992.99
2022-11-23T11:51:49.250Z,993.04
2022-11-23T11:52:49.196Z,993.04
2022-11-23T11:53:49.235Z,993.03
2022-11-23T11:54:49.176Z,993.05
2022-11-23T11:55:49.171Z,993.04
2022-11-23T11:56:49.226Z,993.03
2022-11-23T11:57:49.192Z,993.05
2022-11-23T11:58:49.170Z,993.06
2022-11-23T11:59:49.298Z,993.02
2022-11-23T12:00:49.172Z,993.07
2022-11-23T12:01:49.315Z,993.03
2022-11-23T12:02:49.312Z,993.06
2022-11-23T12:03:49.238Z,993.08
2022-11-23T12:04:49.253Z,993.06
2022-11-23T12:05:49.222Z,993.05
2022-11-23T12:06:49.193Z,993.05
2022-11-23T12:07:49.246Z,993.07
2022-11-23T12:08:49.228Z,993.09
2022-11-23T12:09:49.213Z,993.04
2022-11-23T12:10:49.185Z,993.05
2022-11-23T12:11:50.036Z,993.03
2022-11-23T12:12:49.175Z,993.05
2022-11-23T12:13:58.437Z,993.05
2022-11-23T12:14:54.504Z,993.01
2022-11-23T12:15:50.409Z,992.99
2022-11-23T12:17:10.255Z,993.01
2022-11-23T12:17:49.249Z,993.03
2022-11-23T12:18:49.856Z,993.04
2022-11-23T12:19:50.260Z,993.00
2022-11-23T12:20:49.179Z,993.00
2022-11-23T12:21:54.256Z,992.99
2022-11-23T12:22:49.522Z,993.00
2022-11-23T12:23:49.188Z,993.04
2022-11-23T12:24:49.200Z,992.97
2022-11-23T12:25:49.183Z,992.97
2022-11-23T12:26:49.249Z,992.95
2022-11-23T12:27:49.534Z,992.98
2022-11-23T12:28:49.175Z,992.97
2022-11-23T12:29:49.343Z,992.99
2022-11-23T12:30:49.397Z,992.95
2022-11-23T12:31:49.216Z,992.92
2022-11-23T12:32:49.239Z,992.92
2022-11-23T12:33:49.191Z,992.87
2022-11-23T12:34:49.200Z,992.91
2022-11-23T12:35:49.182Z,992.86
2022-11-23T12:36:49.200Z,992.85
2022-11-23T12:37:49.229Z,992.84
2022-11-23T12:38:49.200Z,992.84
2022-11-23T12:39:49.383Z,992.85
2022-11-23T12:40:49.209Z,992.82
2022-11-23T12:41:49.235Z,992.78
2022-11-23T12:42:49.214Z,992.75
2022-11-23T12:43:49.208Z,992.73
2022-11-23T12:44:49.245Z,992.75
2022-11-23T12:45:49.245Z,992.71
2022-11-23T12:46:49.213Z,992.71
2022-11-23T12:47:49.218Z,992.66
2022-11-23T12:48:49.239Z,992.69
2022-11-23T12:49:49.234Z,992.71
2022-11-23T12:50:49.236Z,992.68
2022-11-23T12:51:49.236Z,992.68
2022-11-23T12:52:49.249Z,992.67
2022-11-23T12:53:49.434Z,992.65
2022-11-23T12:54:49.222Z,992.66
2022-11-23T12:55:49.241Z,992.68
2022-11-23T12:56:49.250Z,992.73
2022-11-23T12:57:49.270Z,992.68
2022-11-23T12:58:49.641Z,992.62
2022-11-23T12:59:49.240Z,992.60
2022-11-23T13:00:49.346Z,992.61
2022-11-23T13:01:49.306Z,992.58
2022-11-23T13:02:49.267Z,992.59
2022-11-23T13:03:49.264Z,992.66
2022-11-23T13:04:49.244Z,992.67
2022-11-23T13:05:49.251Z,992.69
2022-11-23T13:07:12.756Z,992.71
2022-11-23T13:07:49.733Z,992.69
2022-11-23T13:08:49.266Z,992.67
2022-11-23T13:09:49.281Z,992.62
2022-11-23T13:10:49.251Z,992.68
2022-11-23T13:11:49.272Z,992.72
2022-11-23T13:12:49.259Z,992.69
2022-11-23T13:13:49.485Z,992.63
2022-11-23T13:14:49.277Z,992.57
2022-11-23T13:15:49.445Z,992.61
2022-11-23T13:16:49.406Z,992.66
2022-11-23T13:17:49.320Z,992.63
2022-11-23T13:18:49.266Z,992.65
2022-11-23T13:19:49.296Z,992.62
2022-11-23T13:20:49.269Z,992.62
2022-11-23T13:21:49.300Z,992.60
2022-11-23T13:22:49.317Z,992.62
2022-11-23T13:23:49.283Z,992.52
2022-11-23T13:24:49.411Z,992.55
2022-11-23T13:25:49.339Z,992.54
2022-11-23T13:26:49.289Z,992.55
2022-11-23T13:27:49.323Z,992.56
2022-11-23T13:28:49.359Z,992.54
2022-11-23T13:29:49.317Z,992.56
2022-11-23T13:31:13.985Z,992.60
2022-11-23T13:31:49.361Z,992.61
2022-11-23T13:32:49.316Z,992.60
2022-11-23T13:33:49.303Z,992.59
2022-11-23T13:34:49.313Z,992.59
2022-11-23T13:35:49.320Z,992.62
2022-11-23T13:37:11.625Z,992.68
2022-11-23T13:37:49.344Z,992.67
2022-11-23T13:38:49.332Z,992.70
2022-11-23T13:39:49.328Z,992.72
2022-11-23T13:40:49.334Z,992.69
2022-11-23T13:41:49.346Z,992.72
2022-11-23T13:42:49.328Z,992.75
2022-11-23T13:43:49.340Z,992.75
2022-11-23T13:44:49.327Z,992.80
2022-11-23T13:45:49.391Z,992.80
2022-11-23T13:46:49.340Z,992.83
2022-11-23T13:47:49.331Z,992.84
2022-11-23T13:48:56.880Z,992.80
2022-11-23T13:49:49.342Z,992.86
2022-11-23T13:50:49.365Z,992.89
2022-11-23T13:51:49.363Z,992.93
2022-11-23T13:52:49.338Z,992.89
2022-11-23T13:53:49.352Z,992.92
2022-11-23T13:54:49.347Z,992.96
2022-11-23T13:55:49.346Z,992.92
2022-11-23T13:56:49.352Z,992.95
2022-11-23T13:57:49.357Z,992.90
2022-11-23T13:58:49.379Z,992.89
2022-11-23T13:59:49.342Z,992.92
2022-11-23T14:00:49.491Z,992.96
2022-11-23T14:01:49.377Z,992.95
2022-11-23T14:02:49.359Z,992.93
2022-11-23T14:03:49.376Z,992.96
2022-11-23T14:04:49.366Z,992.95
2022-11-23T14:05:49.399Z,992.97
2022-11-23T14:06:49.341Z,992.96
2022-11-23T14:07:49.381Z,992.91
2022-11-23T14:08:49.411Z,992.98
2022-11-23T14:09:49.359Z,992.92
2022-11-23T14:10:49.360Z,992.94
2022-11-23T14:11:49.363Z,992.92
2022-11-23T14:12:49.419Z,992.91
2022-11-23T14:13:49.391Z,992.93
2022-11-23T14:14:49.370Z,992.95
2022-11-23T14:15:49.356Z,993.02
2022-11-23T14:16:49.425Z,992.99
2022-11-23T14:17:49.361Z,993.01
2022-11-23T14:18:49.375Z,992.99
2022-11-23T14:19:49.384Z,992.99
2022-11-23T14:20:49.350Z,992.96
2022-11-23T14:21:49.349Z,992.97
2022-11-23T14:22:49.350Z,993.02
2022-11-23T14:23:49.393Z,992.99
2022-11-23T14:24:49.358Z,992.99
2022-11-23T14:25:49.556Z,992.98
2022-11-23T14:26:49.388Z,992.95
2022-11-23T14:27:49.346Z,992.95
2022-11-23T14:28:49.409Z,992.98
2022-11-23T14:29:49.378Z,992.98
2022-11-23T14:30:49.353Z,992.93
2022-11-23T14:31:49.400Z,992.95
2022-11-23T14:32:49.355Z,992.93
2022-11-23T14:33:49.343Z,992.92
2022-11-23T14:34:49.344Z,992.90
2022-11-23T14:35:49.341Z,992.95
2022-11-23T14:36:49.410Z,992.89
2022-11-23T14:37:49.341Z,992.89
2022-11-23T14:38:49.338Z,992.89
2022-11-23T14:39:49.365Z,992.84
2022-11-23T14:40:49.324Z,992.87
2022-11-23T14:41:49.330Z,992.84
2022-11-23T14:42:49.334Z,992.81
2022-11-23T14:43:49.343Z,992.80
2022-11-23T14:44:49.414Z,992.80
2022-11-23T14:45:49.376Z,992.75
2022-11-23T14:46:49.600Z,992.75
2022-11-23T14:47:49.339Z,992.70
2022-11-23T14:48:49.310Z,992.66
2022-11-23T14:49:49.337Z,992.70
2022-11-23T14:50:49.410Z,992.64
2022-11-23T14:51:49.327Z,992.60
2022-11-23T14:52:49.314Z,992.55
2022-11-23T14:53:49.309Z,992.55
2022-11-23T14:54:49.300Z,992.49
2022-11-23T14:55:49.322Z,992.38
2022-11-23T14:56:49.363Z,992.39
2022-11-23T14:57:49.320Z,992.42
2022-11-23T14:58:49.292Z,992.41
2022-11-23T14:59:49.288Z,992.39
2022-11-23T15:00:49.282Z,992.39
2022-11-23T15:01:49.302Z,992.44
2022-11-23T15:02:49.303Z,992.50
2022-11-23T15:03:50.959Z,992.50
2022-11-23T15:04:49.427Z,992.52
2022-11-23T15:05:49.316Z,992.49
2022-11-23T15:06:49.304Z,992.50
2022-11-23T15:07:49.365Z,992.53
2022-11-23T15:08:49.270Z,992.55
2022-11-23T15:09:49.271Z,992.53
2022-11-23T15:10:49.260Z,992.54
2022-11-23T15:11:49.267Z,992.54
2022-11-23T15:12:49.273Z,992.53
2022-11-23T15:13:49.260Z,992.54
2022-11-23T15:14:49.250Z,992.50
2022-11-23T15:15:49.248Z,992.56
2022-11-23T15:16:49.559Z,992.55
2022-11-23T15:17:49.714Z,992.59
2022-11-23T15:18:49.242Z,992.55
2022-11-23T15:19:49.239Z,992.58
2022-11-23T15:20:49.229Z,992.61
2022-11-23T15:21:49.235Z,992.60
2022-11-23T15:22:49.231Z,992.62
2022-11-23T15:23:49.235Z,992.62
2022-11-23T15:24:49.233Z,992.67
2022-11-23T15:25:49.236Z,992.71
2022-11-23T15:26:49.664Z,992.66
2022-11-23T15:27:49.221Z,992.68
2022-11-23T15:28:49.213Z,992.69
2022-11-23T15:29:49.214Z,992.71
2022-11-23T15:30:53.696Z,992.73
2022-11-23T15:32:07.065Z,992.74
2022-11-23T15:32:49.243Z,992.75
2022-11-23T15:33:49.226Z,992.75
2022-11-23T15:34:49.221Z,992.73
2022-11-23T15:35:49.187Z,992.76
2022-11-23T15:36:49.293Z,992.77
2022-11-23T15:37:49.174Z,992.77
2022-11-23T15:38:49.173Z,992.73
2022-11-23T15:39:49.172Z,992.75
2022-11-23T15:40:49.211Z,992.73
2022-11-23T15:41:49.183Z,992.74
2022-11-23T15:42:49.201Z,992.76
2022-11-23T15:43:49.158Z,992.75
2022-11-23T15:44:51.711Z,992.86
2022-11-23T15:45:49.174Z,992.83
2022-11-23T15:46:49.168Z,992.88
2022-11-23T15:47:49.144Z,992.93
2022-11-23T15:48:49.143Z,992.86
2022-11-23T15:49:49.178Z,992.93
2022-11-23T15:50:49.143Z,992.94
2022-11-23T15:51:49.179Z,992.95
2022-11-23T15:52:49.124Z,992.97
2022-11-23T15:53:49.140Z,992.99
2022-11-23T15:54:49.172Z,993.02
2022-11-23T15:55:49.116Z,993.06
2022-11-23T15:56:49.124Z,993.06
2022-11-23T15:57:49.114Z,993.08
2022-11-23T15:58:49.114Z,993.05
2022-11-23T15:59:49.130Z,993.05
2022-11-23T16:00:49.140Z,993.05
2022-11-23T16:12:58.115Z,993.23
2022-11-23T16:13:58.065Z,993.21
2022-11-23T16:14:58.050Z,993.23
2022-11-23T16:15:58.044Z,993.26
2022-11-23T16:16:58.045Z,993.27
2022-11-23T16:17:58.061Z,993.31
2022-11-23T16:18:58.020Z,993.28
2022-11-23T16:19:58.097Z,993.33
2022-11-23T16:20:58.017Z,993.32
2022-11-23T16:22:02.306Z,993.33
2022-11-23T16:22:58.007Z,993.35
2022-11-23T16:23:58.010Z,993.36
2022-11-23T16:24:58.008Z,993.34
2022-11-23T16:25:58.005Z,993.41
2022-11-23T16:26:57.988Z,993.41
2022-11-23T16:27:57.988Z,993.39
2022-11-23T16:28:58.002Z,993.39
2022-11-23T16:30:02.903Z,993.45
2022-11-23T16:30:58.101Z,993.47
2022-11-23T16:31:57.966Z,993.47
2022-11-23T16:32:57.978Z,993.47
2022-11-23T16:33:58.000Z,993.48
2022-11-23T16:34:57.969Z,993.48
2022-11-23T16:35:57.990Z,993.40
2022-11-23T16:36:57.974Z,993.43
2022-11-23T16:37:57.947Z,993.48
2022-11-23T16:39:03.964Z,993.48
2022-11-23T16:39:57.978Z,993.48
2022-11-23T16:40:57.931Z,993.54
2022-11-23T16:41:57.941Z,993.56
2022-11-23T16:42:57.935Z,993.59
2022-11-23T16:43:57.931Z,993.57
2022-11-23T16:44:57.945Z,993.60
2022-11-23T16:45:58.097Z,993.61
2022-11-23T16:46:57.946Z,993.58
2022-11-23T16:47:57.920Z,993.66
2022-11-23T16:48:57.899Z,993.61
2022-11-23T16:49:57.887Z,993.63
2022-11-23T16:50:57.927Z,993.64
2022-11-23T16:51:57.922Z,993.62
2022-11-23T16:52:57.888Z,993.60
2022-11-23T16:54:15.290Z,993.65
2022-11-23T16:54:57.903Z,993.67
2022-11-23T16:55:57.869Z,993.66
2022-11-23T16:56:57.870Z,993.66